Time;durP1;ratioP1;P1;durP2;ratioP2;P2;SDS_P1;SDS_P2;PMS_P1;PMS_P2;Temp;Humidity;BMP_temperature;BMP_pressure;BME280_temperature;BME280_humidity;BME280_pressure;Samples;Min_cycle;Max_cycle;Signal;HPM_P1;HPM_P2
2023/04/28 04:30:38;;;;;;;;;0.00;0.00;;;;;17.07;86.53;100828.50;5081112;27;46854;-76
2023/04/28 04:33:03;;;;;;;;;0.00;0.00;;;;;16.96;86.88;100812.16;5090099;27;45180;-77
2023/04/28 04:35:29;;;;;;;;;0.50;0.50;;;;;17.02;86.74;100830.66;5098475;27;45461;-77
2023/04/28 04:37:55;;;;;;;;;0.00;0.00;;;;;16.99;86.78;100822.78;5098004;27;45416;-75
2023/04/28 04:40:20;;;;;;;;;0.00;0.00;;;;;17.00;86.88;100813.69;5098250;27;46925;-78
2023/04/28 04:42:46;;;;;;;;;1.00;1.00;;;;;17.04;86.40;100826.00;5098129;27;45440;-75
2023/04/28 04:45:11;;;;;;;;;0.00;0.00;;;;;17.02;86.56;100812.56;5076108;28;45485;-77
2023/04/28 04:47:37;;;;;;;;;0.00;0.00;;;;;16.96;86.67;100817.56;5094670;27;45264;-76
2023/04/28 04:50:02;;;;;;;;;0.00;0.00;;;;;17.05;86.78;100840.44;5079528;27;46184;-76
2023/04/28 04:52:28;;;;;;;;;0.00;0.00;;;;;16.96;86.70;100823.84;5090360;27;45298;-78
2023/04/28 04:54:55;;;;;;;;;1.00;1.00;;;;;16.99;86.82;100842.59;5077682;27;45445;-77
2023/04/28 04:57:20;;;;;;;;;0.00;0.00;;;;;16.88;87.23;100830.78;5077519;28;45417;-77
2023/04/28 04:59:45;;;;;;;;;0.50;0.50;;;;;16.91;87.32;100833.28;5076753;28;45374;-77
2023/04/28 05:02:11;;;;;;;;;0.00;0.00;;;;;16.92;87.08;100829.63;5085188;27;45356;-77
2023/04/28 05:04:36;;;;;;;;;0.75;0.75;;;;;16.93;87.29;100840.31;5077331;28;45450;-77
2023/04/28 05:07:01;;;;;;;;;0.25;0.25;;;;;16.94;87.21;100855.59;5075688;28;45556;-77
2023/04/28 05:09:28;;;;;;;;;1.00;1.00;;;;;16.94;87.22;100849.31;5077220;28;46042;-76
2023/04/28 05:11:53;;;;;;;;;0.00;0.00;;;;;16.83;87.09;100833.84;5077085;28;45500;-76
2023/04/28 05:14:19;;;;;;;;;0.50;0.50;;;;;16.93;87.37;100855.69;5081454;27;45422;-77
2023/04/28 05:16:44;;;;;;;;;0.25;0.00;;;;;16.88;87.55;100855.16;5093957;27;45465;-77
2023/04/28 05:19:10;;;;;;;;;0.00;0.00;;;;;16.88;87.36;100853.31;5099906;27;46004;-77
2023/04/28 05:21:35;;;;;;;;;0.25;0.25;;;;;16.84;87.39;100849.09;5097769;27;45496;-77
2023/04/28 05:24:01;;;;;;;;;0.00;0.00;;;;;16.96;87.23;100860.91;5096800;27;45235;-77
2023/04/28 05:26:26;;;;;;;;;0.00;0.00;;;;;17.00;86.92;100855.19;5097022;27;45537;-76
2023/04/28 05:28:51;;;;;;;;;1.00;1.00;;;;;17.00;86.65;100857.88;5097306;27;45454;-76
2023/04/28 05:31:17;;;;;;;;;0.00;0.00;;;;;16.98;86.80;100854.41;5096473;27;45175;-77
2023/04/28 05:33:42;;;;;;;;;1.00;1.00;;;;;16.90;86.92;100853.22;5068549;28;45510;-76
2023/04/28 05:36:08;;;;;;;;;1.00;1.00;;;;;16.90;86.92;100848.66;5093180;27;45533;-77
2023/04/28 05:38:34;;;;;;;;;0.00;0.00;;;;;16.97;86.60;100857.22;5097153;27;45610;-75
2023/04/28 05:41:00;;;;;;;;;1.00;1.00;;;;;16.87;86.48;100842.59;5097104;27;45405;-77
2023/04/28 05:43:26;;;;;;;;;0.00;0.00;;;;;16.92;86.85;100862.13;5097290;27;45341;-78
2023/04/28 05:45:51;;;;;;;;;1.00;1.00;;;;;16.85;86.94;100853.53;5096341;27;45655;-76
2023/04/28 05:48:17;;;;;;;;;1.00;1.00;;;;;16.84;86.58;100849.09;5097009;27;45561;-77
2023/04/28 05:50:42;;;;;;;;;1.00;1.00;;;;;16.83;86.80;100838.38;5096851;27;45582;-78
2023/04/28 05:53:07;;;;;;;;;1.25;1.00;;;;;16.88;86.45;100844.31;5083637;27;45449;-72
2023/04/28 05:55:35;;;;;;;;;1.25;1.00;;;;;16.94;86.00;100844.75;5074702;28;45765;-78
2023/04/28 05:58:01;;;;;;;;;1.25;0.00;;;;;16.99;86.28;100861.56;5074321;28;48138;-76
2023/04/28 06:00:26;;;;;;;;;0.00;0.00;;;;;17.01;85.80;100867.72;5075839;28;45281;-76
2023/04/28 06:02:52;;;;;;;;;0.75;0.75;;;;;16.96;86.00;100844.66;5076725;28;45351;-81
2023/04/28 06:05:18;;;;;;;;;1.00;1.00;;;;;16.96;85.59;100845.53;5058128;28;45273;-81
2023/04/28 06:07:43;;;;;;;;;0.50;0.50;;;;;17.01;85.75;100856.88;5076308;28;45375;-81
2023/04/28 06:10:09;;;;;;;;;0.00;0.00;;;;;17.06;86.35;100866.53;5076357;27;45557;-80
2023/04/28 06:12:35;;;;;;;;;1.00;1.00;;;;;16.71;85.87;100807.59;5076318;28;45417;-80
2023/04/28 06:15:00;;;;;;;;;1.00;1.00;;;;;16.95;86.12;100846.50;5075626;27;45497;-75
2023/04/28 06:17:26;;;;;;;;;2.00;0.75;;;;;17.06;86.19;100874.66;5057652;28;46211;-77
2023/04/28 06:19:53;;;;;;;;;1.25;1.25;;;;;17.03;86.33;100873.03;5057218;28;45318;-75
2023/04/28 06:22:18;;;;;;;;;2.00;2.00;;;;;16.77;85.66;100828.81;5084940;27;45346;-76
2023/04/28 06:24:44;;;;;;;;;0.50;0.50;;;;;16.95;85.94;100854.63;5095855;27;45531;-75
2023/04/28 06:27:09;;;;;;;;;1.00;1.00;;;;;17.07;85.75;100876.41;5095867;27;45246;-76
2023/04/28 06:29:35;;;;;;;;;1.00;1.00;;;;;17.05;85.70;100883.75;5095792;27;45554;-76
2023/04/28 06:32:00;;;;;;;;;1.00;1.00;;;;;16.97;85.85;100873.47;5093507;27;45330;-77
2023/04/28 06:34:29;;;;;;;;;1.00;1.00;;;;;17.06;85.84;100872.81;5071561;27;46299;-76
2023/04/28 06:36:57;;;;;;;;;1.75;1.75;;;;;17.05;85.17;100864.81;5097766;27;45413;-76
2023/04/28 06:39:22;;;;;;;;;1.00;1.00;;;;;17.08;85.53;100859.19;5071142;27;46150;-79
2023/04/28 06:41:48;;;;;;;;;0.00;0.00;;;;;17.19;84.90;100872.81;5085198;27;45480;-75
2023/04/28 06:44:13;;;;;;;;;1.00;1.00;;;;;17.25;84.51;100877.81;5085467;27;45441;-72
2023/04/28 06:46:38;;;;;;;;;1.00;1.00;;;;;17.28;83.89;100873.03;5077952;27;46053;-72
2023/04/28 06:49:04;;;;;;;;;2.00;1.00;;;;;17.35;84.32;100874.31;5077883;27;46855;-75
2023/04/28 06:51:31;;;;;;;;;1.00;1.00;;;;;17.46;83.36;100881.66;5088116;27;45961;-75
2023/04/28 06:53:57;;;;;;;;;2.00;2.00;;;;;17.46;82.97;100883.50;5079735;27;45382;-74
2023/04/28 06:56:23;;;;;;;;;2.00;2.00;;;;;17.47;83.13;100891.53;5085036;27;45926;-75
2023/04/28 06:58:48;;;;;;;;;1.00;1.00;;;;;17.43;83.31;100897.31;5090928;27;45429;-74
2023/04/28 07:01:14;;;;;;;;;1.00;1.00;;;;;17.42;83.50;100887.44;5065185;27;45368;-72
2023/04/28 07:03:39;;;;;;;;;2.50;2.00;;;;;17.48;83.39;100893.28;5079750;27;45334;-71
2023/04/28 07:06:05;;;;;;;;;0.00;0.00;;;;;17.52;83.15;100886.66;5074645;28;45354;-71
2023/04/28 07:08:31;;;;;;;;;2.00;2.00;;;;;17.62;82.95;100898.59;5092969;27;45377;-73
2023/04/28 07:10:56;;;;;;;;;1.75;1.75;;;;;17.71;83.09;100900.63;5095293;27;45373;-71
2023/04/28 07:13:21;;;;;;;;;2.25;2.00;;;;;17.55;83.00;100891.84;5094918;27;45327;-74
2023/04/28 07:15:47;;;;;;;;;1.00;1.00;;;;;17.58;82.30;100882.63;5086682;27;46390;-73
2023/04/28 07:18:12;;;;;;;;;1.50;1.50;;;;;17.66;82.17;100891.97;5074689;28;45687;-71
2023/04/28 07:20:37;;;;;;;;;1.00;1.00;;;;;17.70;81.76;100895.31;5080207;27;45657;-72
2023/04/28 07:23:03;;;;;;;;;1.00;1.00;;;;;17.75;81.92;100904.00;5094904;27;48756;-72
2023/04/28 07:25:28;;;;;;;;;1.00;1.00;;;;;17.72;81.81;100913.22;5094915;27;50344;-72
2023/04/28 07:27:53;;;;;;;;;1.00;1.00;;;;;17.72;81.87;100907.78;5094707;27;45306;-69
2023/04/28 07:30:19;;;;;;;;;1.00;1.00;;;;;17.81;81.78;100899.97;5094656;27;45271;-72
2023/04/28 07:32:44;;;;;;;;;1.50;1.50;;;;;17.88;81.13;100899.38;5073467;27;45374;-70
2023/04/28 07:35:10;;;;;;;;;2.00;2.00;;;;;17.92;80.24;100902.75;5074170;28;45422;-70
2023/04/28 07:37:36;;;;;;;;;2.75;2.75;;;;;17.92;80.72;100903.63;5074139;28;45351;-72
2023/04/28 07:40:01;;;;;;;;;3.75;2.00;;;;;17.78;80.45;100888.34;5074210;28;45357;-73
2023/04/28 07:42:27;;;;;;;;;2.25;1.00;;;;;17.76;80.20;100882.19;5075631;28;45355;-77
2023/04/28 07:44:52;;;;;;;;;1.00;1.00;;;;;17.93;80.30;100918.06;5051777;28;46623;-72
2023/04/28 07:47:18;;;;;;;;;1.75;1.75;;;;;17.96;80.20;100904.25;5067818;28;47091;-75
2023/04/28 07:49:43;;;;;;;;;1.00;1.00;;;;;18.08;79.29;100916.91;5066101;28;45526;-77
2023/04/28 07:52:08;;;;;;;;;2.00;1.00;;;;;18.05;79.06;100911.72;5061488;28;45329;-72
2023/04/28 07:54:34;;;;;;;;;1.75;1.75;;;;;18.08;79.11;100914.19;5074455;28;45348;-75
2023/04/28 07:57:00;;;;;;;;;2.00;2.00;;;;;17.96;78.92;100901.53;5073569;28;45349;-73
2023/04/28 07:59:25;;;;;;;;;1.50;1.50;;;;;18.10;79.71;100914.97;5074505;28;45473;-73
2023/04/28 08:01:51;;;;;;;;;2.00;2.00;;;;;18.25;79.83;100921.94;5073879;28;45431;-77
2023/04/28 08:04:16;;;;;;;;;2.00;2.00;;;;;18.20;78.61;100904.28;5072780;28;47588;-76
2023/04/28 08:06:42;;;;;;;;;2.75;2.75;;;;;18.39;78.16;100923.63;5074059;28;45397;-72
2023/04/28 08:09:07;;;;;;;;;1.75;1.75;;;;;18.37;77.93;100929.16;5073807;28;45421;-70
2023/04/28 08:11:33;;;;;;;;;2.00;2.00;;;;;18.41;77.99;100913.50;5074013;28;45417;-72
2023/04/28 08:14:01;;;;;;;;;1.50;1.50;;;;;18.51;77.89;100910.00;5073566;28;46038;-73
2023/04/28 08:16:28;;;;;;;;;2.00;2.00;;;;;18.62;76.86;100919.22;5074812;28;45366;-73
2023/04/28 08:18:54;;;;;;;;;1.00;1.00;;;;;18.70;77.11;100925.78;5058211;28;45572;-72
2023/04/28 08:21:20;;;;;;;;;1.00;1.00;;;;;18.69;76.38;100913.19;5075058;28;45477;-74
2023/04/28 08:23:45;;;;;;;;;0.75;0.75;;;;;18.70;76.08;100922.19;5073588;28;46815;-72
2023/04/28 08:26:10;;;;;;;;;2.50;1.25;;;;;18.83;75.76;100931.97;5073811;28;45388;-73
2023/04/28 08:28:36;;;;;;;;;2.00;2.00;;;;;18.88;75.88;100926.22;5073891;28;45581;-73
2023/04/28 08:31:04;;;;;;;;;1.00;1.00;;;;;18.67;74.91;100917.84;5054706;28;45465;-72
2023/04/28 08:33:29;;;;;;;;;0.50;0.25;;;;;18.16;74.04;100841.22;5072453;28;46157;-73
2023/04/28 08:35:55;;;;;;;;;2.00;0.50;;;;;18.65;75.26;100932.53;5073605;28;45308;-73
2023/04/28 08:38:22;;;;;;;;;0.00;0.00;;;;;18.61;75.42;100918.34;5073587;28;45470;-74
2023/04/28 08:40:48;;;;;;;;;1.00;1.00;;;;;18.58;74.30;100932.13;5072726;28;45942;-70
2023/04/28 08:43:14;;;;;;;;;1.00;1.00;;;;;18.45;75.46;100909.59;5073662;27;46231;-72
2023/04/28 08:45:41;;;;;;;;;0.00;0.00;;;;;18.60;75.24;100937.47;5079351;27;45343;-75
2023/04/28 08:48:19;;;;;;;;;1.00;1.00;;;;;18.60;74.91;100922.03;5073182;28;45296;-71
2023/04/28 08:50:53;;;;;;;;;2.75;1.00;;;;;18.59;73.84;100941.16;5072904;28;46016;-72
2023/04/28 08:53:25;;;;;;;;;1.00;1.00;;;;;18.56;74.10;100930.47;5072576;28;46424;-72
2023/04/28 08:55:54;;;;;;;;;0.00;0.00;;;;;18.71;73.97;100935.66;5072963;28;45490;-73
2023/04/28 08:58:22;;;;;;;;;1.00;1.00;;;;;18.82;73.71;100949.25;5073434;27;45375;-72
2023/04/28 09:00:47;;;;;;;;;1.00;1.00;;;;;18.80;73.51;100934.94;5073810;28;45471;-73
2023/04/28 09:03:13;;;;;;;;;2.00;2.00;;;;;18.78;72.93;100927.91;5075176;28;46307;-71
2023/04/28 09:05:39;;;;;;;;;1.00;1.00;;;;;18.76;72.67;100947.03;5075744;28;45549;-72
2023/04/28 09:08:04;;;;;;;;;0.00;0.00;;;;;18.80;72.02;100951.22;5076682;28;45366;-74
2023/04/28 09:10:30;;;;;;;;;1.75;0.75;;;;;18.80;72.28;100943.06;5076195;28;45469;-73
2023/04/28 09:12:56;;;;;;;;;1.75;1.75;;;;;18.77;72.47;100926.16;5075427;28;56057;-74
2023/04/28 09:15:36;;;;;;;;;1.00;1.00;;;;;18.88;72.21;100943.34;5086767;27;45544;-74
2023/04/28 09:18:05;;;;;;;;;2.00;1.00;;;;;18.85;72.60;100951.75;5069391;28;45458;-73
2023/04/28 09:20:32;;;;;;;;;6.50;1.00;;;;;18.87;72.21;100943.50;5075495;28;45365;-74
2023/04/28 09:23:16;;;;;;;;;2.00;2.00;;;;;18.93;72.37;100939.44;5076047;28;46279;-74
2023/04/28 09:26:05;;;;;;;;;2.00;2.00;;;;;18.96;72.28;100941.91;5075529;28;45315;-76
2023/04/28 09:28:33;;;;;;;;;2.00;2.00;;;;;18.99;71.78;100952.53;5059401;28;45342;-73
2023/04/28 09:30:58;;;;;;;;;1.00;1.00;;;;;19.05;72.09;100952.06;5080224;27;45448;-75
2023/04/28 09:33:24;;;;;;;;;2.50;1.00;;;;;19.04;70.60;100953.94;5083464;27;45847;-71
2023/04/28 09:35:50;;;;;;;;;1.00;1.00;;;;;18.84;70.31;100931.00;5075614;28;45497;-78
2023/04/28 09:38:17;;;;;;;;;1.75;1.75;;;;;18.97;71.16;100952.63;5076178;28;45339;-73
2023/04/28 09:40:50;;;;;;;;;2.50;2.50;;;;;19.02;71.23;100950.44;5094724;27;45397;-72
2023/04/28 09:43:25;;;;;;;;;0.00;0.00;;;;;19.08;71.43;100947.25;5082899;27;46080;-73
2023/04/28 09:45:51;;;;;;;;;1.00;1.00;;;;;19.11;70.34;100948.88;5095356;27;45539;-74
2023/04/28 09:48:25;;;;;;;;;1.75;1.75;;;;;19.03;69.23;100940.44;5096891;27;45339;-75
2023/04/28 09:50:53;;;;;;;;;1.00;1.00;;;;;19.22;69.56;100957.91;5095995;27;45454;-74
2023/04/28 09:53:22;;;;;;;;;1.75;1.00;;;;;19.22;68.95;100938.03;5081709;27;45522;-74
2023/04/28 09:55:49;;;;;;;;;1.00;1.00;;;;;19.31;68.24;100959.03;5075792;28;45423;-73
2023/04/28 09:58:18;;;;;;;;;1.00;1.00;;;;;19.34;68.70;100949.78;5085816;27;45492;-75
2023/04/28 10:00:43;;;;;;;;;0.00;0.00;;;;;19.44;68.68;100957.09;5076973;27;45504;-74
2023/04/28 10:03:10;;;;;;;;;1.00;1.00;;;;;19.56;68.18;100952.56;5075816;28;45506;-74
2023/04/28 10:05:38;;;;;;;;;2.50;1.25;;;;;19.72;67.76;100952.19;5075741;27;45496;-75
2023/04/28 10:08:04;;;;;;;;;1.75;1.75;;;;;19.79;67.84;100942.53;5075957;28;45355;-79
2023/04/28 10:10:30;;;;;;;;;1.00;1.00;;;;;19.90;65.72;100946.13;5075006;27;45438;-80
2023/04/28 10:12:56;;;;;;;;;0.00;0.00;;;;;19.92;64.68;100949.56;5077315;28;45456;-80
2023/04/28 10:15:22;;;;;;;;;2.50;1.00;;;;;19.83;64.20;100949.44;5084803;27;45304;-80
2023/04/28 10:17:49;;;;;;;;;0.00;0.00;;;;;19.75;64.00;100950.06;5097224;27;45418;-78
2023/04/28 10:20:16;;;;;;;;;1.75;1.75;;;;;19.89;63.83;100957.13;5096321;27;45652;-80
2023/04/28 10:22:58;;;;;;;;;3.00;1.50;;;;;19.99;64.57;100964.41;5097160;27;45334;-78
2023/04/28 10:25:30;;;;;;;;;1.75;0.25;;;;;20.02;63.36;100966.88;5084089;27;45359;-80
2023/04/28 10:27:58;;;;;;;;;0.50;0.50;;;;;19.86;63.79;100932.88;5096221;27;45441;-79
2023/04/28 10:30:25;;;;;;;;;1.00;1.00;;;;;19.93;64.15;100947.72;5073251;28;47170;-84
2023/04/28 10:33:12;;;;;;;;;1.00;1.00;;;;;20.05;63.79;100967.63;5068627;27;47193;-81
2023/04/28 10:35:39;;;;;;;;;1.00;1.00;;;;;19.81;62.79;100973.22;5093657;27;45409;-75
2023/04/28 10:38:05;;;;;;;;;2.75;1.00;;;;;19.70;63.64;100970.47;5074188;28;45402;-75
2023/04/28 10:40:35;;;;;;;;;0.00;0.00;;;;;19.79;63.09;100972.47;5088288;27;46041;-70
2023/04/28 10:43:01;;;;;;;;;1.00;1.00;;;;;19.91;63.23;100961.44;5095474;27;45472;-73
2023/04/28 10:45:51;;;;;;;;;0.00;0.00;;;;;20.02;61.77;100968.72;5095515;27;46012;-75
2023/04/28 10:48:21;;;;;;;;;1.25;0.25;;;;;20.17;62.25;100966.59;5096133;27;45424;-77
2023/04/28 10:51:02;;;;;;;;;0.50;0.50;;;;;20.20;61.83;100972.66;5095976;27;45370;-73
2023/04/28 10:53:45;;;;;;;;;0.00;0.00;;;;;20.35;62.18;100968.72;5079397;27;45395;-70
2023/04/28 10:56:23;;;;;;;;;3.00;1.75;;;;;20.47;61.85;100964.09;5082983;27;45446;-75
2023/04/28 10:58:59;;;;;;;;;0.00;0.00;;;;;20.54;60.90;100962.59;5076373;27;46005;-78
2023/04/28 11:01:29;;;;;;;;;0.75;0.75;;;;;20.53;61.62;100954.53;5095432;27;45224;-69
2023/04/28 11:06:28;;;;;;;;;1.00;1.00;;;;;20.73;61.39;100964.63;5094601;27;45285;-71
2023/04/28 11:08:59;;;;;;;;;1.00;1.00;;;;;20.80;60.57;100968.56;5095208;27;45384;-67
2023/04/28 11:11:35;;;;;;;;;0.75;0.75;;;;;20.94;61.87;100967.38;5095594;27;45477;-72
2023/04/28 11:14:16;;;;;;;;;2.75;1.75;;;;;21.03;60.95;100969.31;5072297;28;48254;-72
2023/04/28 11:17:01;;;;;;;;;2.50;1.00;;;;;21.00;60.69;100966.88;5088751;27;45417;-74
2023/04/28 11:19:37;;;;;;;;;1.75;1.75;;;;;21.10;60.46;100963.19;5094142;27;45487;-71
2023/04/28 11:22:22;;;;;;;;;1.00;1.00;;;;;21.14;60.62;100953.78;5093274;27;45321;-76
2023/04/28 11:25:00;;;;;;;;;2.50;2.50;;;;;21.18;59.52;100946.19;5095092;27;46306;-87
2023/04/28 11:27:27;;;;;;;;;2.00;2.00;;;;;21.23;59.38;100960.31;5095364;27;45345;-77
2023/04/28 11:29:52;;;;;;;;;1.75;1.00;;;;;21.19;60.46;100923.41;5095484;27;45362;-77
2023/04/28 11:32:26;;;;;;;;;0.25;0.25;;;;;21.28;58.22;100917.13;5095162;27;45532;-77
2023/04/28 11:34:52;;;;;;;;;1.00;1.00;;;;;21.48;57.91;100949.00;5068299;27;45605;-78
2023/04/28 11:37:19;;;;;;;;;1.00;1.00;;;;;21.47;58.33;100943.66;5074305;27;45472;-76
2023/04/28 11:39:45;;;;;;;;;1.00;1.00;;;;;21.29;57.97;100915.28;5072362;28;45470;-77
2023/04/28 11:42:10;;;;;;;;;0.00;0.00;;;;;21.56;58.11;100923.75;5087273;27;45351;-77
2023/04/28 11:44:36;;;;;;;;;0.50;0.50;;;;;21.72;57.85;100921.38;5094644;27;45830;-78
2023/04/28 11:47:03;;;;;;;;;0.75;0.75;;;;;21.71;56.92;100921.50;5077270;27;45629;-79
2023/04/28 11:49:32;;;;;;;;;1.50;1.50;;;;;21.84;56.98;100922.16;5096707;27;45392;-78
2023/04/28 11:52:04;;;;;;;;;1.00;1.00;;;;;21.83;56.96;100926.75;5092464;27;45467;-76
2023/04/28 11:54:30;;;;;;;;;0.25;0.25;;;;;21.95;57.07;100926.66;5079109;27;46399;-82
2023/04/28 11:56:57;;;;;;;;;0.50;0.50;;;;;21.98;56.41;100935.44;5070323;27;45326;-79
2023/04/28 11:59:32;;;;;;;;;2.75;0.50;;;;;21.99;55.86;100917.19;5094534;27;45246;-81
2023/04/28 12:01:59;;;;;;;;;1.00;1.00;;;;;22.16;55.32;100928.31;5094296;27;45414;-74
2023/04/28 12:04:36;;;;;;;;;3.00;3.00;;;;;22.27;55.63;100916.41;5067544;28;47302;-80
2023/04/28 12:07:21;;;;;;;;;2.00;0.75;;;;;22.35;55.12;100932.09;5074077;27;45427;-82
2023/04/28 12:10:17;;;;;;;;;0.75;0.75;;;;;22.08;55.05;100932.75;5093012;27;45484;-76
2023/04/28 12:12:44;;;;;;;;;0.00;0.00;;;;;21.91;55.74;100928.78;5088946;27;45286;-79
2023/04/28 12:15:09;;;;;;;;;1.00;1.00;;;;;21.78;56.24;100907.16;5075798;27;48124;-77
2023/04/28 12:17:40;;;;;;;;;1.00;1.00;;;;;22.09;56.82;100918.97;5094841;27;45464;-82
2023/04/28 12:20:08;;;;;;;;;0.50;0.50;;;;;22.22;55.73;100910.47;5076210;27;45400;-78
2023/04/28 12:22:49;;;;;;;;;0.75;0.75;;;;;22.60;53.27;100931.53;5094195;27;46176;-80
2023/04/28 12:25:18;;;;;;;;;0.75;0.75;;;;;22.89;52.92;100926.94;5093937;27;45360;-78
2023/04/28 12:28:02;;;;;;;;;2.25;1.00;;;;;23.22;51.27;100919.28;5093093;27;45551;-78
2023/04/28 12:30:31;;;;;;;;;1.00;1.00;;;;;23.44;52.76;100931.75;5083008;27;45374;-80
2023/04/28 12:32:57;;;;;;;;;1.00;1.00;;;;;23.86;50.35;100927.59;5092118;27;45279;-75
2023/04/28 12:35:24;;;;;;;;;0.75;0.75;;;;;24.15;49.48;100924.72;5072577;28;45517;-75
2023/04/28 12:37:51;;;;;;;;;0.75;0.75;;;;;24.22;49.88;100927.72;5077488;27;45804;-81
2023/04/28 12:40:17;;;;;;;;;1.00;1.00;;;;;24.09;49.57;100928.91;5077066;28;45416;-79
2023/04/28 12:42:42;;;;;;;;;1.50;1.50;;;;;23.81;49.82;100927.19;5058224;28;46803;-77
2023/04/28 12:45:08;;;;;;;;;1.50;0.75;;;;;23.71;50.19;100929.09;5078600;27;46224;-77
2023/04/28 12:47:34;;;;;;;;;0.25;0.25;;;;;24.08;48.73;100932.66;5076689;27;45421;-78
2023/04/28 12:50:00;;;;;;;;;0.50;0.50;;;;;23.92;48.97;100943.41;5077836;27;45296;-78
2023/04/28 12:52:25;;;;;;;;;1.00;1.00;;;;;23.54;48.85;100947.16;5072199;27;47068;-78
2023/04/28 12:54:51;;;;;;;;;0.00;0.00;;;;;23.36;50.01;100946.19;5077208;28;45881;-79
2023/04/28 12:57:18;;;;;;;;;0.00;0.00;;;;;23.37;50.68;100950.66;5093076;27;45421;-72
2023/04/28 12:59:46;;;;;;;;;0.75;0.75;;;;;23.02;50.44;100918.47;5099641;27;45493;-82
2023/04/28 13:02:13;;;;;;;;;1.00;1.00;;;;;23.43;50.03;100954.66;5080892;28;45729;-78
2023/04/28 13:04:39;;;;;;;;;0.75;0.25;;;;;23.76;48.68;100946.78;5092189;27;46230;-79
2023/04/28 13:07:06;;;;;;;;;0.75;0.75;;;;;24.13;47.81;100935.81;5100406;27;45431;-79
2023/04/28 13:09:31;;;;;;;;;0.50;0.50;;;;;24.28;47.52;100883.25;5079966;27;45373;-79
2023/04/28 13:11:57;;;;;;;;;1.00;1.00;;;;;24.95;46.73;100961.38;5094399;27;45434;-79
2023/04/28 13:14:22;;;;;;;;;0.25;0.25;;;;;24.97;46.82;100941.00;5077853;28;45446;-75
2023/04/28 13:16:48;;;;;;;;;0.50;0.50;;;;;24.91;47.20;100914.22;5077362;28;45318;-80
2023/04/28 13:19:13;;;;;;;;;0.25;0.25;;;;;25.26;46.49;100918.78;5077261;27;45390;-77
2023/04/28 13:21:41;;;;;;;;;0.75;0.75;;;;;25.86;44.73;100938.06;5080300;27;45470;-79
2023/04/28 13:24:07;;;;;;;;;0.00;0.00;;;;;25.91;44.22;100924.66;5097309;27;45417;-77
2023/04/28 13:26:33;;;;;;;;;1.25;0.50;;;;;26.21;45.07;100934.22;5097355;27;45869;-76
2023/04/28 13:28:59;;;;;;;;;0.00;0.00;;;;;26.50;42.89;100914.56;5087782;27;45481;-80
2023/04/28 13:31:24;;;;;;;;;0.00;0.00;;;;;27.20;40.27;100926.84;5076732;27;45333;-79
2023/04/28 13:33:50;;;;;;;;;0.00;0.00;;;;;27.66;38.06;100897.69;5095921;27;45304;-78
2023/04/28 13:36:16;;;;;;;;;0.50;0.50;;;;;28.22;37.28;100924.19;5098017;27;45532;-80
2023/04/28 13:38:44;;;;;;;;;0.00;0.00;;;;;28.44;35.61;100913.38;5098654;27;45480;-80
2023/04/28 13:41:10;;;;;;;;;0.00;0.00;;;;;28.92;35.53;100913.03;5093800;27;45536;-78
2023/04/28 13:43:36;;;;;;;;;1.00;1.00;;;;;29.82;35.55;100925.97;5075433;28;45953;-76
2023/04/28 13:46:07;;;;;;;;;0.00;0.00;;;;;29.77;33.79;100914.66;5079309;27;45479;-77
2023/04/28 13:48:32;;;;;;;;;1.00;1.00;;;;;29.59;33.70;100862.53;5097294;27;45350;-76
2023/04/28 13:50:57;;;;;;;;;0.25;0.00;;;;;30.30;33.70;100911.53;5074002;28;45561;-76
2023/04/28 13:53:23;;;;;;;;;0.00;0.00;;;;;30.55;33.18;100906.53;5080518;27;52573;-77
2023/04/28 13:55:50;;;;;;;;;0.00;0.00;;;;;30.26;33.48;100901.94;5076417;28;45467;-76
2023/04/28 13:58:16;;;;;;;;;0.00;0.00;;;;;29.59;34.74;100879.97;5079897;27;45578;-77
2023/04/28 14:00:41;;;;;;;;;0.00;0.00;;;;;29.31;34.38;100915.63;5075631;28;45568;-79
2023/04/28 14:03:08;;;;;;;;;0.75;0.75;;;;;29.50;33.26;100908.72;5076084;27;45642;-77
2023/04/28 14:05:34;;;;;;;;;0.00;0.00;;;;;29.65;31.90;100926.16;5082816;27;45415;-74
2023/04/28 14:08:02;;;;;;;;;2.50;0.00;;;;;29.90;32.10;100934.19;5097193;27;45315;-77
2023/04/28 14:10:28;;;;;;;;;0.00;0.00;;;;;30.15;30.66;100920.94;5094219;27;45598;-77
2023/04/28 14:12:53;;;;;;;;;0.00;0.00;;;;;30.70;30.10;100934.19;5084985;27;45487;-76
2023/04/28 14:15:18;;;;;;;;;0.75;0.00;;;;;30.60;28.87;100909.59;5092929;27;55513;-79
2023/04/28 14:17:44;;;;;;;;;0.00;0.00;;;;;30.76;29.91;100925.94;5096827;27;45618;-76
2023/04/28 14:20:10;;;;;;;;;1.50;0.00;;;;;30.52;30.42;100919.94;5096049;27;45402;-76
2023/04/28 14:22:36;;;;;;;;;0.00;0.00;;;;;30.55;30.19;100911.22;5096504;27;46228;-76
2023/04/28 14:25:01;;;;;;;;;0.00;0.00;;;;;30.44;29.75;100916.19;5095508;27;45546;-74
2023/04/28 14:27:28;;;;;;;;;0.00;0.00;;;;;30.26;30.36;100909.38;5095914;27;45665;-75
2023/04/28 14:29:53;;;;;;;;;0.00;0.00;;;;;30.02;31.07;100899.50;5095669;27;45485;-77
2023/04/28 14:32:20;;;;;;;;;0.00;0.00;;;;;29.50;31.37;100899.59;5093813;27;45440;-77
2023/04/28 14:34:47;;;;;;;;;0.00;0.00;;;;;29.01;31.95;100907.47;5070709;27;45437;-75
2023/04/28 14:37:13;;;;;;;;;0.00;0.00;;;;;28.86;32.51;100922.06;5090932;27;45266;-76
2023/04/28 14:39:38;;;;;;;;;1.00;0.00;;;;;28.82;33.31;100911.59;5076699;27;45367;-77
2023/04/28 14:42:04;;;;;;;;;1.00;1.00;;;;;28.64;32.31;100916.53;5075261;27;45240;-75
2023/04/28 14:44:29;;;;;;;;;0.00;0.00;;;;;28.12;31.46;100895.94;5067546;28;45365;-77
2023/04/28 14:46:55;;;;;;;;;0.00;0.00;;;;;27.92;32.07;100908.44;5078131;27;45358;-75
2023/04/28 14:49:20;;;;;;;;;1.00;0.00;;;;;27.59;33.17;100915.09;5090346;27;45426;-79
2023/04/28 14:51:46;;;;;;;;;0.00;0.00;;;;;27.47;33.45;100917.34;5095602;27;45430;-78
2023/04/28 14:54:12;;;;;;;;;0.00;0.00;;;;;27.26;33.97;100930.78;5073056;27;45509;-75
2023/04/28 14:56:37;;;;;;;;;0.00;0.00;;;;;27.21;34.01;100919.47;5075196;27;45382;-78
2023/04/28 14:59:03;;;;;;;;;0.00;0.00;;;;;26.98;33.87;100903.63;5095350;27;48495;-79
2023/04/28 15:01:29;;;;;;;;;0.00;0.00;;;;;27.09;34.87;100932.69;5095473;27;47582;-79
2023/04/28 15:03:54;;;;;;;;;1.00;1.00;;;;;27.02;34.39;100916.03;5095949;27;45290;-79
2023/04/28 15:06:21;;;;;;;;;0.00;0.00;;;;;26.78;34.82;100898.63;5095210;27;45582;-75
2023/04/28 15:08:46;;;;;;;;;0.00;0.00;;;;;26.80;33.61;100921.31;5078216;27;46109;-79
2023/04/28 15:11:12;;;;;;;;;0.00;0.00;;;;;26.71;34.62;100895.72;5100636;27;45535;-83
2023/04/28 15:13:37;;;;;;;;;0.00;0.00;;;;;26.68;33.87;100918.91;5105057;27;44732;-83
2023/04/28 15:16:02;;;;;;;;;0.75;0.00;;;;;26.73;34.27;100923.88;5106240;27;45295;-79
2023/04/28 15:18:28;;;;;;;;;0.00;0.00;;;;;26.60;34.22;100879.53;5100651;27;45379;-80
2023/04/28 15:20:54;;;;;;;;;0.00;0.00;;;;;26.88;33.80;100908.41;5103499;27;45722;-81
2023/04/28 15:23:19;;;;;;;;;0.00;0.00;;;;;26.96;33.81;100929.63;5095149;27;45288;-83
2023/04/28 15:25:44;;;;;;;;;0.00;0.00;;;;;26.69;34.01;100909.63;5080443;28;45332;-82
2023/04/28 15:28:10;;;;;;;;;0.00;0.00;;;;;26.66;34.88;100925.59;5080307;28;45553;-75
2023/04/28 15:30:35;;;;;;;;;0.00;0.00;;;;;26.13;34.77;100860.00;5077966;28;46690;-82
2023/04/28 15:33:00;;;;;;;;;0.00;0.00;;;;;26.10;35.00;100885.94;5092161;27;45419;-79
2023/04/28 15:35:26;;;;;;;;;0.75;0.00;;;;;25.86;35.58;100883.94;5099555;27;45367;-87
2023/04/28 15:37:55;;;;;;;;;1.50;0.50;;;;;25.76;36.36;100887.88;5101595;27;45315;-87
2023/04/28 15:40:21;;;;;;;;;0.00;0.00;;;;;25.95;36.57;100932.41;5093939;27;46128;-78
2023/04/28 15:42:53;;;;;;;;;0.00;0.00;;;;;25.79;36.90;100937.81;5094421;27;45354;-73
2023/04/28 15:45:20;;;;;;;;;0.00;0.00;;;;;25.65;37.75;100943.94;5099344;27;45519;-73
2023/04/28 15:47:47;;;;;;;;;1.00;1.00;;;;;25.36;37.94;100902.19;5117774;27;44806;-77
2023/04/28 15:50:12;;;;;;;;;0.00;0.00;;;;;25.55;37.08;100926.69;5116320;27;45070;-77
2023/04/28 15:52:45;;;;;;;;;0.00;0.00;;;;;25.66;37.48;100936.56;5088292;27;45553;-76
2023/04/28 15:55:15;;;;;;;;;1.00;0.00;;;;;25.68;37.40;100932.63;5089889;27;45681;-76
2023/04/28 15:57:41;;;;;;;;;0.00;0.00;;;;;25.56;38.08;100931.16;5076428;27;46380;-79